Time;durP1;ratioP1;P1;durP2;ratioP2;P2;SDS_P1;SDS_P2;PMS_P1;PMS_P2;Temp;Humidity;BMP_temperature;BMP_pressure;BME280_temperature;BME280_humidity;BME280_pressure;Samples;Min_cycle;Max_cycle;Signal;HPM_P1;HPM_P2
2024/01/08 00:05:01;;;;;;;4.40;3.83;;;16.20;47.30;;;;;;6171595;23;20675;-84
2024/01/08 00:07:27;;;;;;;5.85;3.67;;;16.20;47.50;;;;;;6117242;23;20191;-84
2024/01/08 00:17:36;;;;;;;4.13;3.40;;;16.20;47.40;;;;;;6212525;23;20688;-86
2024/01/08 00:20:18;;;;;;;4.43;3.53;;;16.20;47.60;;;;;;6118259;23;20155;-85
2024/01/08 00:22:52;;;;;;;6.28;3.97;;;16.10;47.60;;;;;;6122080;23;20210;-83
2024/01/08 00:25:23;;;;;;;5.40;3.65;;;16.10;47.50;;;;;;6077413;23;20152;-84
2024/01/08 00:27:58;;;;;;;5.55;3.75;;;16.10;47.40;;;;;;6076935;23;20173;-84
2024/01/08 00:30:29;;;;;;;6.97;4.20;;;16.10;47.50;;;;;;6050454;23;20161;-85
2024/01/08 00:33:10;;;;;;;5.00;3.72;;;16.10;47.10;;;;;;6002355;23;20249;-85
2024/01/08 00:35:46;;;;;;;5.35;4.00;;;16.20;47.30;;;;;;6002661;23;20153;-85
2024/01/08 00:38:30;;;;;;;6.88;4.07;;;16.10;47.30;;;;;;5940074;24;20159;-85
2024/01/08 00:41:02;;;;;;;5.05;3.70;;;16.10;47.10;;;;;;5896843;24;20156;-85
2024/01/08 00:43:42;;;;;;;6.07;4.20;;;16.20;47.10;;;;;;5940943;24;20168;-84
2024/01/08 00:46:32;;;;;;;5.60;3.78;;;16.10;47.20;;;;;;5881301;24;20203;-84
2024/01/08 00:49:05;;;;;;;5.40;3.92;;;16.10;47.30;;;;;;5897805;24;20156;-84
2024/01/08 00:51:45;;;;;;;5.43;4.05;;;16.10;47.30;;;;;;5914107;24;20155;-84
2024/01/08 00:54:14;;;;;;;5.53;3.90;;;16.10;47.10;;;;;;5947467;24;20159;-84
2024/01/08 00:56:50;;;;;;;4.78;3.60;;;16.10;47.20;;;;;;6009443;23;20157;-84
2024/01/08 00:59:35;;;;;;;6.53;3.63;;;16.10;47.30;;;;;;5980085;23;20194;-84
2024/01/08 01:02:03;;;;;;;5.10;4.05;;;16.10;47.30;;;;;;6070534;23;20153;-85
2024/01/08 01:04:41;;;;;;;5.15;3.80;;;16.10;47.20;;;;;;6177816;23;20157;-84
2024/01/08 01:20:48;;;;;;;5.70;4.05;;;16.10;47.10;;;;;;6111201;23;20191;-84
2024/01/08 01:23:22;;;;;;;5.72;4.05;;;16.00;47.20;;;;;;6086240;23;20288;-84
2024/01/08 01:25:59;;;;;;;4.60;3.67;;;16.00;47.20;;;;;;6110242;23;20232;-84
2024/01/08 01:28:28;;;;;;;4.78;3.58;;;16.00;47.20;;;;;;6061780;23;20584;-84
2024/01/08 01:36:40;;;;;;;8.32;4.18;;;16.00;47.30;;;;;;6170790;23;20528;-85
2024/01/08 01:39:32;;;;;;;;;;;;;;;;;;;;;
2024/01/08 02:02:58;;;;;;;5.50;4.10;;;16.00;47.10;;;;;;6201005;22;20221;-85
2024/01/08 02:05:35;;;;;;;5.68;4.10;;;16.00;47.00;;;;;;6137362;23;20159;-85
2024/01/08 02:08:18;;;;;;;5.65;4.20;;;16.00;47.00;;;;;;6054911;23;20156;-84
2024/01/08 02:11:18;;;;;;;5.18;4.10;;;16.00;47.20;;;;;;6020735;23;20255;-85
2024/01/08 02:14:09;;;;;;;6.13;4.45;;;16.00;47.00;;;;;;5945576;24;20699;-84
2024/01/08 02:16:42;;;;;;;5.10;3.88;;;16.00;47.20;;;;;;6176812;23;20201;-85
2024/01/08 02:19:19;;;;;;;4.65;3.80;;;15.90;47.10;;;;;;6141503;23;20155;-83
2024/01/08 02:21:55;;;;;;;4.95;3.95;;;15.90;46.90;;;;;;6119542;23;20151;-84
2024/01/08 02:24:45;;;;;;;5.10;3.90;;;15.90;47.10;;;;;;6083722;23;20157;-83
2024/01/08 02:27:28;;;;;;;5.90;4.32;;;16.00;47.10;;;;;;6059852;23;20196;-84
2024/01/08 02:30:17;;;;;;;6.68;3.70;;;16.00;47.10;;;;;;6063784;23;20141;-84
2024/01/08 02:35:38;;;;;;;5.60;3.92;;;16.00;47.20;;;;;;6132648;23;20202;-85
2024/01/08 02:38:19;;;;;;;4.80;3.75;;;15.90;47.00;;;;;;6150306;23;20640;-84
2024/01/08 02:56:20;;;;;;;4.72;3.80;;;15.90;46.90;;;;;;6177886;23;20212;-85
2024/01/08 03:01:30;;;;;;;5.68;4.00;;;15.90;46.90;;;;;;6200002;23;20206;-83
2024/01/08 03:04:33;;;;;;;5.05;3.75;;;15.90;47.00;;;;;;6154223;23;20438;-84
2024/01/08 03:07:01;;;;;;;5.88;4.32;;;15.90;46.90;;;;;;6136285;23;20550;-84
2024/01/08 03:09:27;;;;;;;5.40;4.13;;;15.90;46.90;;;;;;6112286;23;20140;-84
2024/01/08 03:27:22;;;;;;;4.68;3.78;;;15.90;46.90;;;;;;6194230;23;20212;-83
2024/01/08 03:29:54;;;;;;;5.15;3.63;;;15.90;46.90;;;;;;6201439;23;20173;-83
2024/01/08 03:32:33;;;;;;;5.97;4.20;;;15.90;46.80;;;;;;6087415;23;20159;-84
2024/01/08 03:35:13;;;;;;;5.18;3.83;;;15.80;46.90;;;;;;6063459;23;20211;-84
2024/01/08 03:42:40;;;;;;;4.95;3.70;;;15.90;46.80;;;;;;6215736;22;20220;-83
2024/01/08 03:45:32;;;;;;;4.10;3.70;;;15.90;46.80;;;;;;6201352;23;20134;-83
2024/01/08 03:48:07;;;;;;;4.97;3.70;;;15.90;46.80;;;;;;6121431;23;20259;-84
2024/01/08 04:00:53;;;;;;;4.82;3.92;;;15.80;46.90;;;;;;6135662;23;20607;-86
2024/01/08 04:03:26;;;;;;;4.75;3.75;;;15.80;46.70;;;;;;6119481;23;20237;-84
2024/01/08 04:05:54;;;;;;;6.03;3.88;;;15.80;46.70;;;;;;6142002;23;20182;-83
2024/01/08 04:08:38;;;;;;;5.57;3.75;;;15.90;46.90;;;;;;6053359;23;20609;-84
2024/01/08 04:11:08;;;;;;;4.95;3.83;;;15.80;46.80;;;;;;6008342;23;20153;-84
2024/01/08 04:13:59;;;;;;;5.47;3.75;;;15.80;46.70;;;;;;6029999;23;20179;-85
2024/01/08 04:17:01;;;;;;;6.05;4.25;;;15.80;46.90;;;;;;5998320;23;20153;-84
2024/01/08 04:19:40;;;;;;;5.25;3.92;;;15.80;46.80;;;;;;5970171;24;20197;-84
2024/01/08 04:22:05;;;;;;;4.72;3.60;;;15.80;46.90;;;;;;5971186;24;20156;-84
2024/01/08 04:40:31;;;;;;;4.55;3.38;;;15.80;46.70;;;;;;6156025;23;20178;-84
2024/01/08 04:43:13;;;;;;;4.97;3.75;;;15.80;46.70;;;;;;6153655;23;20170;-84
2024/01/08 04:53:23;;;;;;;4.57;3.78;;;15.80;46.70;;;;;;6217984;23;20206;-85
2024/01/08 04:55:59;;;;;;;5.05;3.55;;;15.80;46.70;;;;;;6104627;23;20157;-86
2024/01/08 04:58:26;;;;;;;6.28;4.30;;;15.80;46.60;;;;;;6203023;23;20154;-85
2024/01/08 05:00:55;;;;;;;4.20;3.40;;;15.80;46.60;;;;;;6151054;23;20214;-85
2024/01/08 05:03:28;;;;;;;4.72;3.70;;;15.80;46.60;;;;;;6125672;23;20209;-86
2024/01/08 05:05:57;;;;;;;4.85;3.95;;;15.80;46.50;;;;;;6149658;23;20186;-85
2024/01/08 05:08:26;;;;;;;4.75;3.75;;;15.80;46.60;;;;;;6151176;23;20146;-86
2024/01/08 05:11:01;;;;;;;4.15;3.40;;;15.80;46.50;;;;;;6152609;23;20142;-85
2024/01/08 05:13:32;;;;;;;4.50;3.78;;;15.80;46.50;;;;;;6153983;23;20141;-85
2024/01/08 05:16:08;;;;;;;5.05;3.75;;;15.80;46.50;;;;;;6125613;23;20158;-86
2024/01/08 05:18:49;;;;;;;4.75;3.67;;;15.80;46.50;;;;;;6051923;23;20616;-85
2024/01/08 05:44:39;;;;;;;3.75;3.35;;;15.70;46.50;;;;;;6159911;23;20189;-85
2024/01/08 05:47:12;;;;;;;5.18;3.38;;;15.70;46.50;;;;;;6168971;23;20213;-84
2024/01/08 05:49:49;;;;;;;4.25;3.45;;;15.70;46.40;;;;;;6144231;23;20150;-84
2024/01/08 05:52:21;;;;;;;3.92;3.53;;;15.80;46.60;;;;;;6119027;23;20149;-85
2024/01/08 05:54:52;;;;;;;4.32;3.13;;;15.70;46.50;;;;;;6118603;23;20159;-85
2024/01/08 05:57:38;;;;;;;5.13;3.35;;;15.70;46.50;;;;;;6118528;23;20160;-85
2024/01/08 06:13:59;;;;;;;4.00;3.50;;;15.70;46.30;;;;;;6154646;23;20193;-86
2024/01/08 06:16:35;;;;;;;4.15;3.50;;;15.80;46.50;;;;;;6163905;23;20175;-85
2024/01/08 06:19:05;;;;;;;4.40;3.33;;;15.70;46.30;;;;;;6103372;23;20709;-86
2024/01/08 06:21:31;;;;;;;4.57;3.47;;;15.70;46.30;;;;;;6081903;23;20159;-84
2024/01/08 06:24:08;;;;;;;4.35;3.42;;;15.70;46.40;;;;;;6061821;23;20156;-84
2024/01/08 06:26:37;;;;;;;4.78;3.50;;;15.70;46.20;;;;;;6002829;23;20415;-86
2024/01/08 06:29:24;;;;;;;4.15;3.35;;;15.70;46.30;;;;;;5973714;24;20163;-84
2024/01/08 06:31:58;;;;;;;4.15;3.45;;;15.70;46.30;;;;;;5976438;24;20669;-86
2024/01/08 06:37:42;;;;;;;4.85;3.60;;;15.70;46.40;;;;;;6184681;23;20205;-85
2024/01/08 06:47:57;;;;;;;4.78;3.58;;;15.70;46.40;;;;;;6192265;23;20201;-85
2024/01/08 06:50:23;;;;;;;4.45;3.45;;;15.70;46.30;;;;;;6079024;23;20158;-84
2024/01/08 06:52:50;;;;;;;4.22;3.35;;;15.70;46.30;;;;;;6031698;23;20162;-85
2024/01/08 07:15:59;;;;;;;4.80;3.42;;;15.80;45.90;;;;;;6160564;23;20416;-83
2024/01/08 07:18:25;;;;;;;4.00;3.17;;;15.80;45.40;;;;;;6152792;23;20567;-84
2024/01/08 07:20:52;;;;;;;3.30;3.00;;;15.90;45.40;;;;;;6145429;23;20138;-84
2024/01/08 07:23:25;;;;;;;5.00;3.17;;;15.90;45.10;;;;;;6148433;23;20276;-84
2024/01/08 07:25:54;;;;;;;4.85;3.50;;;15.90;45.30;;;;;;6146393;23;20186;-84
2024/01/08 07:28:20;;;;;;;3.78;3.17;;;15.90;45.10;;;;;;6195398;23;20550;-84
2024/01/08 07:30:49;;;;;;;3.53;3.15;;;15.90;44.70;;;;;;6194604;23;20173;-85
2024/01/08 07:33:15;;;;;;;10.63;3.60;;;16.00;45.10;;;;;;6176162;23;20146;-84
2024/01/08 07:35:41;;;;;;;4.00;3.13;;;16.00;45.10;;;;;;6170034;23;20135;-85
2024/01/08 07:38:07;;;;;;;3.50;2.92;;;15.90;45.30;;;;;;6140218;23;20150;-85
2024/01/08 07:40:35;;;;;;;4.22;3.15;;;16.00;44.30;;;;;;6164384;23;20509;-84
2024/01/08 07:43:01;;;;;;;3.88;2.90;;;16.00;44.80;;;;;;6164397;23;20146;-85
2024/01/08 07:45:27;;;;;;;3.85;3.08;;;16.00;44.90;;;;;;6172797;23;20168;-85
2024/01/08 07:47:57;;;;;;;5.07;3.22;;;16.00;44.50;;;;;;6183080;23;20131;-85
2024/01/08 07:50:29;;;;;;;4.32;3.13;;;16.00;44.90;;;;;;6116594;23;20160;-84
2024/01/08 07:53:02;;;;;;;3.63;3.00;;;16.00;44.70;;;;;;6104586;23;20144;-87
2024/01/08 07:55:37;;;;;;;4.57;3.00;;;16.00;44.80;;;;;;6081191;23;20169;-84
2024/01/08 07:58:09;;;;;;;4.45;3.22;;;16.00;44.60;;;;;;6026973;23;20157;-84
2024/01/08 08:00:38;;;;;;;3.88;2.75;;;16.10;44.40;;;;;;6024924;23;20225;-85
2024/01/08 08:03:04;;;;;;;4.55;3.05;;;16.20;44.20;;;;;;6023095;23;20170;-85
2024/01/08 08:05:31;;;;;;;3.38;2.88;;;16.10;44.50;;;;;;6023964;23;20214;-84
2024/01/08 08:08:10;;;;;;;3.97;3.13;;;16.10;44.30;;;;;;6002644;23;20205;-84
2024/01/08 08:10:48;;;;;;;3.97;3.00;;;16.10;44.60;;;;;;6005957;23;20214;-85
2024/01/08 08:13:30;;;;;;;;;;;;;;;;;;;;;
2024/01/08 08:17:31;;;;;;;4.10;3.10;;;16.10;44.90;;;;;;5766337;23;16341736;-84
2024/01/08 08:19:37;;;;;;;3.40;2.97;;;16.10;45.20;;;;;;6034369;23;20337;-83
2024/01/08 08:22:14;;;;;;;6.28;3.00;;;16.10;44.60;;;;;;5923679;24;20225;-85
2024/01/08 08:24:50;;;;;;;3.60;2.92;;;16.10;44.60;;;;;;5967035;24;20156;-84
2024/01/08 08:27:18;;;;;;;5.03;3.17;;;16.10;44.30;;;;;;5940819;24;20187;-84
2024/01/08 08:29:49;;;;;;;5.45;3.00;;;16.10;45.00;;;;;;5988240;24;20508;-84
2024/01/08 08:32:55;;;;;;;2.90;2.60;;;16.10;44.90;;;;;;5970505;24;20214;-83
2024/01/08 08:35:25;;;;;;;3.90;2.85;;;16.10;44.50;;;;;;5997515;23;20161;-82
2024/01/08 08:37:51;;;;;;;3.53;2.78;;;16.10;44.20;;;;;;5907502;23;20249;-83
2024/01/08 08:40:23;;;;;;;3.88;2.80;;;16.20;44.70;;;;;;6000429;23;20146;-83
2024/01/08 08:42:54;;;;;;;6.28;3.13;;;16.30;44.20;;;;;;5916291;23;20577;-83
2024/01/08 08:45:24;;;;;;;5.35;2.80;;;16.30;44.40;;;;;;5985958;23;20149;-84
2024/01/08 08:47:57;;;;;;;4.20;3.05;;;16.40;44.00;;;;;;6032150;23;20258;-84
2024/01/08 08:50:34;;;;;;;4.45;3.20;;;16.40;44.10;;;;;;6009270;23;20153;-82
2024/01/08 08:53:00;;;;;;;5.38;2.83;;;16.30;44.00;;;;;;6059691;23;20151;-81
2024/01/08 08:55:28;;;;;;;5.78;2.90;;;16.40;44.50;;;;;;6089606;23;20140;-82
2024/01/08 09:42:48;;;;;;;6.32;2.33;;;16.60;47.10;;;;;;6219316;23;20212;-81
2024/01/08 09:45:15;;;;;;;3.65;2.90;;;16.70;46.20;;;;;;6180739;23;20137;-81
2024/01/08 09:47:42;;;;;;;4.03;2.88;;;16.70;46.10;;;;;;6179503;23;20180;-81
2024/01/08 09:50:26;;;;;;;;;;;;;;;;;;;;;
2024/01/08 09:53:02;;;;;;;6.53;2.53;;;16.80;45.60;;;;;;6131146;23;20170;-82
2024/01/08 09:55:35;;;;;;;7.53;3.03;;;16.80;45.00;;;;;;6157291;23;20479;-83
2024/01/08 09:58:01;;;;;;;8.02;2.65;;;16.70;46.00;;;;;;6180174;23;20134;-81
2024/01/08 10:00:45;;;;;;;9.85;3.33;;;16.80;46.00;;;;;;6177779;23;20526;-85
2024/01/08 10:03:16;;;;;;;5.50;2.65;;;16.70;46.10;;;;;;6201878;23;20505;-82
2024/01/08 10:06:09;;;;;;;7.50;2.70;;;16.70;45.90;;;;;;6127982;23;20147;-84
2024/01/08 10:08:50;;;;;;;4.00;2.85;;;16.80;45.80;;;;;;6174599;23;20182;-82
2024/01/08 10:11:29;;;;;;;8.25;2.90;;;16.80;46.20;;;;;;6177714;23;20134;-82
2024/01/08 10:13:58;;;;;;;6.70;2.63;;;16.80;47.30;;;;;;6135733;23;20177;-82
2024/01/08 10:16:47;;;;;;;6.65;2.58;;;16.80;46.70;;;;;;6151074;23;20430;-80
2024/01/08 10:19:37;;;;;;;7.65;2.97;;;16.80;46.60;;;;;;6179679;23;20161;-82
2024/01/08 10:22:11;;;;;;;8.55;2.35;;;16.80;46.70;;;;;;6111477;23;20159;-82
2024/01/08 10:24:51;;;;;;;7.53;2.88;;;16.70;46.80;;;;;;6110125;23;20151;-82
2024/01/08 10:27:17;;;;;;;5.15;2.33;;;16.70;47.00;;;;;;6038676;23;20183;-81
2024/01/08 10:29:48;;;;;;;6.72;2.60;;;16.70;47.10;;;;;;6108477;23;20159;-80
2024/01/08 10:32:21;;;;;;;8.38;2.80;;;16.60;47.30;;;;;;6037831;23;20280;-81
2024/01/08 10:34:57;;;;;;;8.10;2.72;;;16.70;47.40;;;;;;6063721;23;20156;-82
2024/01/08 10:37:29;;;;;;;6.88;2.80;;;16.70;47.20;;;;;;6058147;23;20155;-81
2024/01/08 10:39:55;;;;;;;5.28;2.38;;;16.70;47.30;;;;;;6058198;23;20612;-83
2024/01/08 10:42:37;;;;;;;;;;;;;;;;;;;;;
2024/01/08 10:45:04;;;;;;;4.25;2.38;;;16.70;47.40;;;;;;6074072;23;20244;-82
2024/01/08 10:47:35;;;;;;;10.90;2.83;;;16.70;47.50;;;;;;6185539;23;20205;-81
2024/01/08 10:50:02;;;;;;;10.82;2.67;;;16.70;47.50;;;;;;6138144;23;20146;-83
2024/01/08 10:52:29;;;;;;;6.40;2.60;;;16.60;47.30;;;;;;6113631;23;20169;-82
2024/01/08 10:55:01;;;;;;;5.65;2.47;;;16.60;47.30;;;;;;6139156;23;20155;-82
2024/01/08 10:57:53;;;;;;;7.70;2.65;;;16.70;47.30;;;;;;6138589;23;20161;-82
2024/01/08 11:00:19;;;;;;;7.90;2.60;;;16.70;46.70;;;;;;6141523;23;20154;-82
2024/01/08 11:02:49;;;;;;;9.20;2.90;;;16.70;46.80;;;;;;6113719;23;20242;-82
2024/01/08 11:05:19;;;;;;;3.30;2.47;;;16.70;46.90;;;;;;6093721;23;20189;-83
2024/01/08 11:07:49;;;;;;;5.40;2.28;;;16.70;46.90;;;;;;6120762;23;20224;-80
2024/01/08 11:10:22;;;;;;;4.72;2.40;;;16.70;47.00;;;;;;6138668;23;20174;-83
2024/01/08 11:12:52;;;;;;;7.28;2.78;;;16.70;46.90;;;;;;6139596;23;20139;-83
2024/01/08 11:15:18;;;;;;;6.07;2.60;;;16.60;47.30;;;;;;6141019;23;20150;-83
2024/01/08 11:17:53;;;;;;;5.38;2.20;;;16.70;46.90;;;;;;6135718;23;20193;-81
2024/01/08 11:20:40;;;;;;;3.80;2.40;;;16.60;47.10;;;;;;6137326;23;20146;-81
2024/01/08 11:23:40;;;;;;;5.47;2.50;;;16.70;47.10;;;;;;6160071;23;20158;-81
2024/01/08 11:26:10;;;;;;;4.80;2.35;;;16.70;46.90;;;;;;6161350;23;20194;-82
2024/01/08 11:28:37;;;;;;;5.45;2.22;;;16.70;47.50;;;;;;6110950;23;20143;-83
2024/01/08 11:31:24;;;;;;;13.27;3.03;;;16.70;47.00;;;;;;6160356;23;20174;-81
2024/01/08 11:34:10;;;;;;;6.65;2.42;;;16.70;47.30;;;;;;6159482;23;20158;-81
2024/01/08 11:36:47;;;;;;;6.75;2.70;;;16.60;46.90;;;;;;6184433;23;20189;-81
2024/01/08 11:39:17;;;;;;;5.45;2.17;;;16.70;47.00;;;;;;6135999;23;20131;-81
2024/01/08 11:41:44;;;;;;;5.13;2.33;;;16.70;47.20;;;;;;6135163;23;20533;-81
2024/01/08 11:44:14;;;;;;;8.13;2.58;;;16.70;47.30;;;;;;6137207;23;20189;-82
2024/01/08 11:46:41;;;;;;;5.28;2.00;;;16.60;47.50;;;;;;6158833;23;20219;-82
2024/01/08 11:49:07;;;;;;;3.65;2.13;;;16.60;47.30;;;;;;6168836;23;20131;-82
2024/01/08 11:51:34;;;;;;;4.40;2.47;;;16.60;46.80;;;;;;6193706;23;20138;-82
2024/01/08 11:54:04;;;;;;;8.35;2.20;;;16.70;47.00;;;;;;6169336;23;20131;-83
2024/01/08 11:56:30;;;;;;;6.50;2.42;;;16.70;46.90;;;;;;6168892;23;20145;-82
2024/01/08 11:58:56;;;;;;;3.47;1.88;;;16.80;46.60;;;;;;6194508;23;20130;-81
2024/01/08 12:01:22;;;;;;;3.67;2.30;;;16.80;46.90;;;;;;6205815;23;20142;-81
2024/01/08 12:03:48;;;;;;;3.22;2.17;;;16.80;46.80;;;;;;6207544;23;20142;-81
2024/01/08 12:06:14;;;;;;;3.72;1.95;;;16.80;46.80;;;;;;6183296;23;20188;-82
2024/01/08 12:08:41;;;;;;;2.95;2.22;;;16.70;46.70;;;;;;6206635;23;20131;-82
2024/01/08 12:11:11;;;;;;;5.13;2.10;;;16.80;47.10;;;;;;6147734;23;20138;-82
2024/01/08 12:13:40;;;;;;;3.38;1.77;;;16.70;46.90;;;;;;6170122;23;20146;-81
2024/01/08 12:16:09;;;;;;;3.88;1.80;;;16.80;46.50;;;;;;6170333;23;20142;-82
2024/01/08 12:18:36;;;;;;;4.32;2.10;;;16.70;47.00;;;;;;6168279;23;20146;-83
2024/01/08 12:21:07;;;;;;;4.20;2.17;;;16.70;46.60;;;;;;6166919;23;20141;-82
2024/01/08 12:23:38;;;;;;;2.75;1.83;;;16.70;46.80;;;;;;6121625;23;20146;-81
2024/01/08 12:26:04;;;;;;;3.35;2.10;;;16.70;47.30;;;;;;6118986;23;20189;-82
2024/01/08 12:28:36;;;;;;;3.17;2.00;;;16.80;46.70;;;;;;6195168;23;20154;-82
2024/01/08 12:31:08;;;;;;;2.92;2.10;;;16.80;46.60;;;;;;6119209;23;20150;-82
2024/01/08 12:33:41;;;;;;;2.30;1.63;;;16.80;46.90;;;;;;6120827;23;20200;-82
2024/01/08 12:36:12;;;;;;;3.25;2.05;;;16.80;46.20;;;;;;6120277;23;20208;-81
2024/01/08 12:38:43;;;;;;;3.47;2.00;;;16.90;46.30;;;;;;6119663;23;20181;-81
2024/01/08 12:41:15;;;;;;;3.28;2.22;;;16.90;45.70;;;;;;6143731;23;20203;-81
2024/01/08 12:43:43;;;;;;;2.80;1.85;;;16.90;46.70;;;;;;6146787;23;20284;-82
2024/01/08 12:46:10;;;;;;;3.05;2.03;;;16.80;47.10;;;;;;6174142;23;20162;-81
2024/01/08 12:48:41;;;;;;;3.95;2.20;;;16.70;46.90;;;;;;6170497;23;20221;-80
2024/01/08 12:51:24;;;;;;;5.65;2.00;;;16.80;47.00;;;;;;6141722;23;20644;-82
2024/01/08 12:53:49;;;;;;;6.68;2.00;;;16.70;47.20;;;;;;6142163;23;20146;-82
2024/01/08 12:56:15;;;;;;;4.47;2.05;;;16.70;47.50;;;;;;6219328;23;20144;-82
2024/01/08 12:58:42;;;;;;;2.33;2.00;;;16.70;47.90;;;;;;6192163;23;20172;-82
2024/01/08 13:01:08;;;;;;;5.95;2.38;;;16.70;47.10;;;;;;6173056;23;20154;-82
2024/01/08 13:03:47;;;;;;;4.32;1.90;;;16.60;47.50;;;;;;6172752;23;20126;-82
2024/01/08 13:06:17;;;;;;;5.63;2.22;;;16.70;47.10;;;;;;6150885;23;20184;-81
2024/01/08 13:08:42;;;;;;;3.50;2.05;;;16.70;47.30;;;;;;6174636;23;20123;-81
2024/01/08 13:11:08;;;;;;;2.50;2.00;;;16.70;47.10;;;;;;6148237;23;20472;-82
2024/01/08 13:13:34;;;;;;;3.83;1.95;;;16.60;47.20;;;;;;6199446;23;20131;-82
2024/01/08 13:16:00;;;;;;;4.20;2.00;;;16.70;46.90;;;;;;6172161;23;20166;-83
2024/01/08 13:18:32;;;;;;;3.45;1.80;;;16.70;46.50;;;;;;6151517;23;20145;-82
2024/01/08 13:21:03;;;;;;;3.47;1.88;;;16.70;46.80;;;;;;6147443;23;20146;-82
2024/01/08 13:23:30;;;;;;;4.20;1.75;;;16.80;46.60;;;;;;6088126;23;20199;-83
2024/01/08 13:25:56;;;;;;;3.42;1.95;;;16.80;46.90;;;;;;6162707;23;20186;-83
2024/01/08 13:28:26;;;;;;;3.15;2.28;;;16.80;47.20;;;;;;6161989;23;20226;-82
2024/01/08 13:30:52;;;;;;;4.25;2.05;;;16.70;47.10;;;;;;6157826;23;20143;-81
2024/01/08 13:33:21;;;;;;;2.30;1.90;;;16.80;47.30;;;;;;6133658;23;20154;-81
2024/01/08 13:35:50;;;;;;;3.53;1.80;;;16.80;46.50;;;;;;6067835;23;20220;-82
2024/01/08 13:38:20;;;;;;;4.07;1.65;;;16.80;47.00;;;;;;5998214;23;20636;-82
2024/01/08 13:40:49;;;;;;;4.45;1.80;;;16.80;46.30;;;;;;6067510;23;20153;-82
2024/01/08 13:43:15;;;;;;;3.35;1.73;;;16.90;46.50;;;;;;6041803;23;20266;-82
2024/01/08 13:45:41;;;;;;;3.17;1.92;;;16.80;46.50;;;;;;6017331;23;20558;-81
2024/01/08 13:48:16;;;;;;;2.00;1.70;;;16.80;46.50;;;;;;6016456;23;20236;-81
2024/01/08 13:50:58;;;;;;;3.10;1.75;;;16.80;47.10;;;;;;6037889;23;20198;-82
2024/01/08 13:53:24;;;;;;;2.67;1.85;;;16.80;46.50;;;;;;5972964;23;20161;-81
2024/01/08 13:55:52;;;;;;;3.33;1.70;;;16.80;45.60;;;;;;6044336;23;20150;-82
2024/01/08 13:58:19;;;;;;;2.95;1.60;;;16.90;46.70;;;;;;6042826;23;20160;-81
2024/01/08 14:00:47;;;;;;;4.65;2.00;;;16.80;46.90;;;;;;6018325;23;20641;-82
2024/01/08 14:03:14;;;;;;;5.10;2.08;;;16.80;46.60;;;;;;6042574;23;20553;-82
2024/01/08 14:05:44;;;;;;;5.70;2.00;;;16.80;46.60;;;;;;6023614;23;20146;-80
2024/01/08 14:08:14;;;;;;;9.10;2.17;;;16.80;46.70;;;;;;6104367;23;20158;-81
2024/01/08 14:10:42;;;;;;;6.10;1.98;;;16.80;46.90;;;;;;6083969;23;20234;-82
2024/01/08 14:13:12;;;;;;;6.05;2.03;;;16.80;46.50;;;;;;6135174;23;20154;-82
2024/01/08 14:15:42;;;;;;;8.80;2.05;;;16.80;47.00;;;;;;6113502;23;20476;-82
2024/01/08 14:18:08;;;;;;;6.07;1.88;;;16.80;46.90;;;;;;6111252;23;20556;-82
2024/01/08 14:20:37;;;;;;;5.90;1.95;;;16.80;47.10;;;;;;6137296;23;20127;-82
2024/01/08 14:23:09;;;;;;;3.15;1.92;;;16.80;46.90;;;;;;6062960;23;20155;-81
2024/01/08 14:25:38;;;;;;;2.88;1.67;;;16.90;46.90;;;;;;6089282;23;20490;-82
2024/01/08 14:28:07;;;;;;;6.00;2.00;;;16.90;46.70;;;;;;6112254;23;20209;-83
2024/01/08 14:30:37;;;;;;;4.53;1.60;;;16.90;46.70;;;;;;6111342;23;20162;-83
2024/01/08 14:33:06;;;;;;;3.10;1.70;;;16.80;46.90;;;;;;6086354;23;20155;-81
2024/01/08 14:35:35;;;;;;;6.05;1.90;;;16.90;47.10;;;;;;6087887;23;20154;-81
2024/01/08 14:38:04;;;;;;;2.92;1.80;;;16.80;46.90;;;;;;6090648;23;20146;-83
2024/01/08 14:40:36;;;;;;;3.42;1.83;;;16.80;47.10;;;;;;6089452;23;20718;-84
2024/01/08 14:43:19;;;;;;;;;;;;;;;;;;;;;
2024/01/08 14:45:56;;;;;;;4.60;1.60;;;16.80;47.30;;;;;;6105579;23;20183;-82
2024/01/08 14:48:28;;;;;;;4.32;1.80;;;16.80;47.00;;;;;;6034136;23;20228;-83
2024/01/08 14:51:02;;;;;;;1.95;1.50;;;16.80;47.60;;;;;;6031204;23;20149;-82
2024/01/08 14:53:33;;;;;;;5.50;1.80;;;16.80;46.70;;;;;;6019684;23;20157;-82
2024/01/08 14:56:05;;;;;;;5.70;1.75;;;16.70;47.00;;;;;;5995093;23;20310;-83
2024/01/08 14:58:53;;;;;;;3.00;1.70;;;16.80;47.10;;;;;;5993326;23;20324;-82
2024/01/08 15:01:26;;;;;;;7.03;1.65;;;16.80;46.60;;;;;;6045454;23;20157;-82
2024/01/08 15:04:08;;;;;;;2.50;1.40;;;16.80;46.90;;;;;;6024376;23;20183;-83
2024/01/08 15:07:09;;;;;;;3.85;1.60;;;16.80;47.20;;;;;;6023923;23;20264;-83
2024/01/08 15:09:53;;;;;;;3.25;1.67;;;16.80;46.70;;;;;;6050320;23;20149;-83
2024/01/08 15:12:24;;;;;;;3.42;1.77;;;16.80;47.60;;;;;;6009490;23;20575;-83
2024/01/08 15:14:55;;;;;;;5.75;1.75;;;16.80;47.70;;;;;;5950201;23;20154;-83
2024/01/08 15:17:22;;;;;;;4.25;1.92;;;16.80;47.70;;;;;;5970257;23;20169;-82
2024/01/08 15:19:50;;;;;;;5.65;1.70;;;16.70;47.60;;;;;;5969642;23;20701;-82
2024/01/08 15:22:18;;;;;;;2.83;1.48;;;16.70;47.90;;;;;;5972806;23;20154;-83
2024/01/08 15:24:46;;;;;;;3.83;1.75;;;16.70;47.20;;;;;;6009718;23;20149;-83
2024/01/08 15:27:13;;;;;;;3.08;1.60;;;16.70;47.50;;;;;;6052497;23;20279;-84
2024/01/08 15:29:40;;;;;;;2.75;1.55;;;16.70;46.90;;;;;;6078622;23;20156;-80
2024/01/08 15:32:07;;;;;;;5.18;1.65;;;16.70;46.80;;;;;;6053947;23;20149;-82
2024/01/08 15:35:47;;;;;;;4.07;1.58;;;16.70;47.50;;;;;;6097244;23;20164;-80
2024/01/08 15:41:27;;;;;;;4.25;1.70;;;16.70;47.60;;;;;;6045408;23;20224;-80
2024/01/08 15:44:10;;;;;;;3.17;1.48;;;16.80;46.20;;;;;;6022854;23;20196;-80
2024/01/08 15:46:42;;;;;;;3.58;1.80;;;16.70;47.30;;;;;;6103923;23;20186;-81
2024/01/08 15:49:11;;;;;;;2.42;1.52;;;16.70;47.60;;;;;;6079257;23;20179;-79
2024/01/08 15:51:43;;;;;;;4.80;1.77;;;16.70;47.10;;;;;;6105602;23;20180;-80
2024/01/08 15:54:11;;;;;;;2.65;1.58;;;16.80;46.80;;;;;;6072715;23;20153;-81
2024/01/08 15:56:43;;;;;;;2.72;1.27;;;16.70;47.20;;;;;;6047164;23;20604;-82
2024/01/08 15:59:24;;;;;;;2.20;1.30;;;16.70;47.50;;;;;;6021580;23;20160;-79
2024/01/08 16:01:54;;;;;;;4.25;1.58;;;16.80;47.40;;;;;;6026553;23;20145;-80
2024/01/08 16:04:41;;;;;;;2.47;1.58;;;16.80;47.30;;;;;;6023961;23;20157;-79
2024/01/08 16:07:17;;;;;;;3.22;1.70;;;16.80;47.70;;;;;;6023623;23;20263;-79
2024/01/08 16:10:07;;;;;;;3.25;1.35;;;16.70;47.80;;;;;;6023423;23;20158;-80
2024/01/08 16:19:59;;;;;;;;;;;;;;;;;;;;;
2024/01/08 16:22:35;;;;;;;4.55;1.52;;;16.80;47.20;;;;;;5956340;24;20162;-79
2024/01/08 16:25:04;;;;;;;3.05;1.67;;;16.80;47.60;;;;;;5988343;23;20155;-79
2024/01/08 16:28:14;;;;;;;5.30;1.40;;;16.80;47.60;;;;;;6016723;23;20496;-79
2024/01/08 16:31:16;;;;;;;6.97;1.50;;;16.80;47.30;;;;;;5903942;24;20164;-80
2024/01/08 16:37:09;;;;;;;4.18;1.55;;;16.90;47.60;;;;;;5836367;24;20246;-80
2024/01/08 16:39:42;;;;;;;8.35;1.60;;;16.90;47.40;;;;;;5846719;24;20273;-80
2024/01/08 16:42:43;;;;;;;2.05;1.30;;;17.00;47.50;;;;;;5820692;24;20218;-81
2024/01/08 16:48:21;;;;;;;4.00;1.48;;;17.00;48.00;;;;;;5800545;24;20171;-78
2024/01/08 16:50:47;;;;;;;4.28;1.30;;;17.00;47.80;;;;;;5823310;24;20170;-81
2024/01/08 16:53:44;;;;;;;2.40;1.40;;;17.10;47.40;;;;;;5868182;24;20577;-80
2024/01/08 16:56:18;;;;;;;5.03;1.40;;;17.10;46.60;;;;;;5871254;24;20226;-80
2024/01/08 16:58:46;;;;;;;3.75;1.60;;;17.10;46.70;;;;;;5851507;24;20154;-80
2024/01/08 17:01:17;;;;;;;6.78;1.60;;;17.10;46.90;;;;;;5867982;24;20281;-79
2024/01/08 17:03:53;;;;;;;2.63;1.65;;;17.10;47.80;;;;;;5909670;24;20639;-79
2024/01/08 17:06:55;;;;;;;6.00;1.23;;;17.00;47.50;;;;;;5912069;23;20187;-78
2024/01/08 17:09:24;;;;;;;4.75;1.40;;;17.00;48.10;;;;;;5933059;23;20153;-78
2024/01/08 17:11:51;;;;;;;5.70;1.38;;;17.00;47.50;;;;;;6002798;23;20160;-78
2024/01/08 17:14:17;;;;;;;6.90;1.67;;;17.00;47.60;;;;;;6080688;23;20287;-79
2024/01/08 17:17:23;;;;;;;;;;;;;;;;;;;;;
2024/01/08 17:20:14;;;;;;;10.02;1.80;;;17.10;48.10;;;;;;6024492;23;20162;-80
2024/01/08 17:22:46;;;;;;;5.65;1.50;;;17.00;47.80;;;;;;5995670;23;20184;-81
2024/01/08 17:25:14;;;;;;;4.05;1.38;;;17.00;47.90;;;;;;5984227;23;20166;-81
2024/01/08 17:27:45;;;;;;;4.68;1.60;;;17.10;47.70;;;;;;6045952;23;20235;-81
2024/01/08 17:30:12;;;;;;;4.53;1.70;;;17.10;47.50;;;;;;6040027;23;20180;-81
2024/01/08 17:32:45;;;;;;;1.88;1.25;;;17.10;47.80;;;;;;6038842;23;20177;-80
2024/01/08 17:35:42;;;;;;;3.47;1.45;;;17.10;48.10;;;;;;5991697;23;20175;-80
2024/01/08 17:38:32;;;;;;;5.80;1.50;;;17.10;48.10;;;;;;5959006;24;20243;-80
2024/01/08 17:41:25;;;;;;;3.63;1.50;;;17.10;48.00;;;;;;5959066;24;20185;-81
2024/01/08 17:43:51;;;;;;;3.53;1.50;;;17.20;48.60;;;;;;5956781;24;20265;-80
2024/01/08 17:46:33;;;;;;;6.47;1.40;;;17.20;48.10;;;;;;5914117;24;20184;-80
2024/01/08 17:49:37;;;;;;;3.78;1.48;;;17.20;48.20;;;;;;5833712;24;20155;-80